Aviation Digital Data Service (ADDS)

Output produced by TAFs form (0603 UTC 05 July 2015)
found at http://aviationweather.gov/adds/tafs/
 
KCNY 050528Z 0506/0606 13012G20KT 6SM -RA OVC100 
     TEMPO 0506/0508 VRB10G20KT -TSRA BKN060CB 
     FM051000 VRB03KT P6SM SCT060 BKN100 
     FM051800 23008G16KT P6SM VCTS SCT080CB BKN120 
     FM060000 29010KT P6SM VCSH BKN150